sensor_id;sensor_type;location;lat;lon;timestamp;P1;durP1;ratioP1;P2;durP2;ratioP2
35909;SDS011;22004;49.120;-0.200;2023-09-12T00:00:32;8.18;;;6.25;;
35909;SDS011;22004;49.120;-0.200;2023-09-12T00:02:57;8.85;;;5.90;;
35909;SDS011;22004;49.120;-0.200;2023-09-12T00:05:23;10.30;;;6.75;;
35909;SDS011;22004;49.120;-0.200;2023-09-12T00:07:51;10.10;;;6.03;;
35909;SDS011;22004;49.120;-0.200;2023-09-12T00:10:17;11.68;;;6.53;;
35909;SDS011;22004;49.120;-0.200;2023-09-12T00:12:43;8.45;;;6.20;;
35909;SDS011;22004;49.120;-0.200;2023-09-12T00:15:08;12.27;;;6.53;;
35909;SDS011;22004;49.120;-0.200;2023-09-12T00:17:34;9.05;;;6.53;;
35909;SDS011;22004;49.120;-0.200;2023-09-12T00:19:59;10.90;;;6.47;;
35909;SDS011;22004;49.120;-0.200;2023-09-12T00:22:24;9.77;;;6.53;;
35909;SDS011;22004;49.120;-0.200;2023-09-12T00:24:49;9.20;;;6.80;;
35909;SDS011;22004;49.120;-0.200;2023-09-12T00:27:15;8.30;;;6.60;;
35909;SDS011;22004;49.120;-0.200;2023-09-12T00:29:40;11.18;;;6.18;;
35909;SDS011;22004;49.120;-0.200;2023-09-12T00:32:05;8.18;;;6.25;;
35909;SDS011;22004;49.120;-0.200;2023-09-12T00:34:31;11.60;;;6.60;;
35909;SDS011;22004;49.120;-0.200;2023-09-12T00:36:56;10.38;;;6.78;;
35909;SDS011;22004;49.120;-0.200;2023-09-12T00:39:21;10.85;;;6.90;;
35909;SDS011;22004;49.120;-0.200;2023-09-12T00:41:47;10.65;;;7.13;;
35909;SDS011;22004;49.120;-0.200;2023-09-12T00:44:12;10.27;;;6.75;;
35909;SDS011;22004;49.120;-0.200;2023-09-12T00:46:38;9.38;;;6.78;;
35909;SDS011;22004;49.120;-0.200;2023-09-12T00:49:04;9.80;;;6.72;;
35909;SDS011;22004;49.120;-0.200;2023-09-12T00:51:32;9.23;;;6.40;;
35909;SDS011;22004;49.120;-0.200;2023-09-12T00:53:58;8.20;;;6.72;;
35909;SDS011;22004;49.120;-0.200;2023-09-12T00:56:23;8.80;;;6.90;;
35909;SDS011;22004;49.120;-0.200;2023-09-12T00:58:49;10.02;;;6.57;;
35909;SDS011;22004;49.120;-0.200;2023-09-12T01:01:17;9.85;;;7.30;;
35909;SDS011;22004;49.120;-0.200;2023-09-12T01:03:43;15.00;;;7.40;;
35909;SDS011;22004;49.120;-0.200;2023-09-12T01:06:08;10.60;;;6.82;;
35909;SDS011;22004;49.120;-0.200;2023-09-12T01:08:34;11.13;;;6.70;;
35909;SDS011;22004;49.120;-0.200;2023-09-12T01:11:02;16.33;;;7.38;;
35909;SDS011;22004;49.120;-0.200;2023-09-12T01:13:27;9.40;;;6.88;;
35909;SDS011;22004;49.120;-0.200;2023-09-12T01:15:53;10.02;;;6.55;;
35909;SDS011;22004;49.120;-0.200;2023-09-12T01:18:19;11.30;;;7.38;;
35909;SDS011;22004;49.120;-0.200;2023-09-12T01:21:00;11.55;;;6.72;;
35909;SDS011;22004;49.120;-0.200;2023-09-12T01:24:04;10.73;;;7.07;;
35909;SDS011;22004;49.120;-0.200;2023-09-12T01:26:39;15.55;;;8.00;;
35909;SDS011;22004;49.120;-0.200;2023-09-12T01:29:14;9.95;;;8.00;;
35909;SDS011;22004;49.120;-0.200;2023-09-12T01:31:41;11.73;;;8.00;;
35909;SDS011;22004;49.120;-0.200;2023-09-12T01:34:08;15.20;;;8.52;;
35909;SDS011;22004;49.120;-0.200;2023-09-12T01:36:35;10.23;;;7.30;;
35909;SDS011;22004;49.120;-0.200;2023-09-12T01:39:00;10.85;;;7.78;;
35909;SDS011;22004;49.120;-0.200;2023-09-12T01:41:26;12.90;;;7.72;;
35909;SDS011;22004;49.120;-0.200;2023-09-12T01:43:56;10.75;;;7.70;;
35909;SDS011;22004;49.120;-0.200;2023-09-12T01:46:22;14.02;;;8.43;;
35909;SDS011;22004;49.120;-0.200;2023-09-12T01:48:49;11.23;;;7.45;;
35909;SDS011;22004;49.120;-0.200;2023-09-12T01:51:17;11.88;;;7.70;;
35909;SDS011;22004;49.120;-0.200;2023-09-12T01:53:44;12.38;;;7.72;;
35909;SDS011;22004;49.120;-0.200;2023-09-12T01:56:11;14.20;;;8.15;;
35909;SDS011;22004;49.120;-0.200;2023-09-12T01:58:37;10.68;;;7.75;;
35909;SDS011;22004;49.120;-0.200;2023-09-12T02:01:03;12.65;;;7.68;;
35909;SDS011;22004;49.120;-0.200;2023-09-12T02:03:29;12.02;;;7.65;;
35909;SDS011;22004;49.120;-0.200;2023-09-12T02:05:54;12.70;;;8.07;;
35909;SDS011;22004;49.120;-0.200;2023-09-12T02:08:19;13.48;;;7.57;;
35909;SDS011;22004;49.120;-0.200;2023-09-12T02:10:45;13.73;;;8.00;;
35909;SDS011;22004;49.120;-0.200;2023-09-12T02:13:10;11.50;;;7.57;;
35909;SDS011;22004;49.120;-0.200;2023-09-12T02:15:36;13.30;;;8.40;;
35909;SDS011;22004;49.120;-0.200;2023-09-12T02:18:01;11.48;;;7.43;;
35909;SDS011;22004;49.120;-0.200;2023-09-12T02:20:27;12.52;;;8.13;;
35909;SDS011;22004;49.120;-0.200;2023-09-12T02:22:52;11.02;;;7.50;;
35909;SDS011;22004;49.120;-0.200;2023-09-12T02:25:18;9.73;;;7.20;;
35909;SDS011;22004;49.120;-0.200;2023-09-12T02:27:43;9.52;;;7.05;;
35909;SDS011;22004;49.120;-0.200;2023-09-12T02:30:08;9.75;;;7.35;;
35909;SDS011;22004;49.120;-0.200;2023-09-12T02:32:34;12.50;;;7.75;;
35909;SDS011;22004;49.120;-0.200;2023-09-12T02:34:59;12.75;;;8.55;;
35909;SDS011;22004;49.120;-0.200;2023-09-12T02:37:25;11.63;;;8.05;;
35909;SDS011;22004;49.120;-0.200;2023-09-12T02:39:50;11.90;;;8.60;;
35909;SDS011;22004;49.120;-0.200;2023-09-12T02:42:15;11.68;;;8.75;;
35909;SDS011;22004;49.120;-0.200;2023-09-12T02:44:41;12.98;;;7.60;;
35909;SDS011;22004;49.120;-0.200;2023-09-12T02:47:06;11.80;;;7.35;;
35909;SDS011;22004;49.120;-0.200;2023-09-12T02:49:31;10.68;;;7.60;;
35909;SDS011;22004;49.120;-0.200;2023-09-12T02:51:57;11.70;;;7.85;;
35909;SDS011;22004;49.120;-0.200;2023-09-12T02:54:22;11.82;;;8.07;;
35909;SDS011;22004;49.120;-0.200;2023-09-12T02:56:47;15.05;;;8.27;;
35909;SDS011;22004;49.120;-0.200;2023-09-12T02:59:13;12.55;;;7.50;;
35909;SDS011;22004;49.120;-0.200;2023-09-12T03:01:38;12.77;;;8.50;;
35909;SDS011;22004;49.120;-0.200;2023-09-12T03:04:03;12.30;;;7.70;;
35909;SDS011;22004;49.120;-0.200;2023-09-12T03:06:29;11.73;;;8.02;;
35909;SDS011;22004;49.120;-0.200;2023-09-12T03:08:55;11.95;;;8.27;;
35909;SDS011;22004;49.120;-0.200;2023-09-12T03:11:20;14.25;;;8.63;;
35909;SDS011;22004;49.120;-0.200;2023-09-12T03:13:45;13.07;;;8.30;;
35909;SDS011;22004;49.120;-0.200;2023-09-12T03:16:11;12.07;;;8.25;;
35909;SDS011;22004;49.120;-0.200;2023-09-12T03:18:37;15.35;;;7.88;;
35909;SDS011;22004;49.120;-0.200;2023-09-12T03:21:03;13.57;;;7.90;;
35909;SDS011;22004;49.120;-0.200;2023-09-12T03:23:28;14.15;;;8.85;;
35909;SDS011;22004;49.120;-0.200;2023-09-12T03:25:53;14.52;;;8.48;;
35909;SDS011;22004;49.120;-0.200;2023-09-12T03:28:19;10.65;;;7.88;;
35909;SDS011;22004;49.120;-0.200;2023-09-12T03:30:45;13.00;;;7.85;;
35909;SDS011;22004;49.120;-0.200;2023-09-12T03:33:10;13.35;;;8.20;;
35909;SDS011;22004;49.120;-0.200;2023-09-12T03:35:35;10.57;;;8.48;;
35909;SDS011;22004;49.120;-0.200;2023-09-12T03:38:01;15.55;;;8.55;;
35909;SDS011;22004;49.120;-0.200;2023-09-12T03:40:30;12.38;;;9.32;;
35909;SDS011;22004;49.120;-0.200;2023-09-12T03:42:56;14.30;;;9.13;;
35909;SDS011;22004;49.120;-0.200;2023-09-12T03:45:22;14.27;;;9.30;;
35909;SDS011;22004;49.120;-0.200;2023-09-12T03:47:48;14.18;;;9.30;;
35909;SDS011;22004;49.120;-0.200;2023-09-12T03:50:13;14.43;;;8.88;;
35909;SDS011;22004;49.120;-0.200;2023-09-12T03:52:39;11.60;;;8.55;;
35909;SDS011;22004;49.120;-0.200;2023-09-12T03:55:04;12.25;;;8.98;;
35909;SDS011;22004;49.120;-0.200;2023-09-12T03:57:30;13.45;;;9.10;;
35909;SDS011;22004;49.120;-0.200;2023-09-12T03:59:55;15.48;;;9.55;;
35909;SDS011;22004;49.120;-0.200;2023-09-12T04:02:20;16.15;;;9.18;;
35909;SDS011;22004;49.120;-0.200;2023-09-12T04:04:45;15.55;;;9.02;;
35909;SDS011;22004;49.120;-0.200;2023-09-12T04:07:11;12.38;;;8.32;;
35909;SDS011;22004;49.120;-0.200;2023-09-12T04:09:36;14.50;;;8.80;;
35909;SDS011;22004;49.120;-0.200;2023-09-12T04:12:02;12.30;;;8.85;;
35909;SDS011;22004;49.120;-0.200;2023-09-12T04:14:27;15.55;;;9.00;;
35909;SDS011;22004;49.120;-0.200;2023-09-12T04:16:52;13.57;;;8.75;;
35909;SDS011;22004;49.120;-0.200;2023-09-12T04:19:18;12.02;;;8.93;;
35909;SDS011;22004;49.120;-0.200;2023-09-12T04:21:43;11.02;;;8.23;;
35909;SDS011;22004;49.120;-0.200;2023-09-12T04:24:08;11.05;;;8.50;;
35909;SDS011;22004;49.120;-0.200;2023-09-12T04:26:34;11.27;;;8.85;;
35909;SDS011;22004;49.120;-0.200;2023-09-12T04:28:59;12.45;;;8.80;;
35909;SDS011;22004;49.120;-0.200;2023-09-12T04:31:25;15.13;;;9.43;;
35909;SDS011;22004;49.120;-0.200;2023-09-12T04:33:53;12.23;;;8.50;;
35909;SDS011;22004;49.120;-0.200;2023-09-12T04:36:19;14.07;;;9.00;;
35909;SDS011;22004;49.120;-0.200;2023-09-12T04:38:45;13.13;;;8.75;;
35909;SDS011;22004;49.120;-0.200;2023-09-12T04:41:11;16.73;;;10.00;;
35909;SDS011;22004;49.120;-0.200;2023-09-12T04:43:40;13.57;;;9.45;;
35909;SDS011;22004;49.120;-0.200;2023-09-12T04:46:06;16.23;;;9.50;;
35909;SDS011;22004;49.120;-0.200;2023-09-12T04:48:32;13.57;;;8.95;;
35909;SDS011;22004;49.120;-0.200;2023-09-12T04:50:57;13.95;;;9.52;;
35909;SDS011;22004;49.120;-0.200;2023-09-12T04:53:22;12.93;;;9.88;;
35909;SDS011;22004;49.120;-0.200;2023-09-12T04:55:47;13.73;;;10.02;;
35909;SDS011;22004;49.120;-0.200;2023-09-12T04:58:13;13.45;;;9.38;;
35909;SDS011;22004;49.120;-0.200;2023-09-12T05:00:38;12.63;;;9.23;;
35909;SDS011;22004;49.120;-0.200;2023-09-12T05:03:04;14.32;;;9.40;;
35909;SDS011;22004;49.120;-0.200;2023-09-12T05:05:29;13.65;;;9.32;;
35909;SDS011;22004;49.120;-0.200;2023-09-12T05:07:55;13.45;;;8.82;;
35909;SDS011;22004;49.120;-0.200;2023-09-12T05:10:20;13.45;;;9.35;;
35909;SDS011;22004;49.120;-0.200;2023-09-12T05:12:45;15.18;;;9.32;;
35909;SDS011;22004;49.120;-0.200;2023-09-12T05:15:11;16.15;;;10.70;;
35909;SDS011;22004;49.120;-0.200;2023-09-12T05:17:36;17.80;;;9.63;;
35909;SDS011;22004;49.120;-0.200;2023-09-12T05:20:02;15.40;;;9.90;;
35909;SDS011;22004;49.120;-0.200;2023-09-12T05:22:29;16.15;;;10.38;;
35909;SDS011;22004;49.120;-0.200;2023-09-12T05:24:55;15.90;;;10.15;;
35909;SDS011;22004;49.120;-0.200;2023-09-12T05:27:20;16.90;;;10.00;;
35909;SDS011;22004;49.120;-0.200;2023-09-12T05:29:45;12.13;;;9.32;;
35909;SDS011;22004;49.120;-0.200;2023-09-12T05:32:11;14.60;;;9.43;;
35909;SDS011;22004;49.120;-0.200;2023-09-12T05:34:36;15.35;;;10.05;;
35909;SDS011;22004;49.120;-0.200;2023-09-12T05:37:02;14.15;;;10.02;;
35909;SDS011;22004;49.120;-0.200;2023-09-12T05:39:28;14.32;;;9.55;;
35909;SDS011;22004;49.120;-0.200;2023-09-12T05:41:53;13.73;;;9.80;;
35909;SDS011;22004;49.120;-0.200;2023-09-12T05:44:18;14.73;;;9.32;;
35909;SDS011;22004;49.120;-0.200;2023-09-12T05:46:45;14.52;;;9.77;;
35909;SDS011;22004;49.120;-0.200;2023-09-12T05:49:11;16.52;;;10.63;;
35909;SDS011;22004;49.120;-0.200;2023-09-12T05:51:37;13.82;;;9.90;;
35909;SDS011;22004;49.120;-0.200;2023-09-12T05:54:02;14.77;;;9.82;;
35909;SDS011;22004;49.120;-0.200;2023-09-12T05:56:28;15.88;;;9.73;;
35909;SDS011;22004;49.120;-0.200;2023-09-12T05:58:53;15.50;;;9.80;;
35909;SDS011;22004;49.120;-0.200;2023-09-12T06:01:19;14.75;;;10.15;;
35909;SDS011;22004;49.120;-0.200;2023-09-12T06:03:44;16.75;;;11.02;;
35909;SDS011;22004;49.120;-0.200;2023-09-12T06:06:09;13.48;;;9.90;;
35909;SDS011;22004;49.120;-0.200;2023-09-12T06:08:35;15.65;;;10.27;;
35909;SDS011;22004;49.120;-0.200;2023-09-12T06:11:00;12.98;;;9.40;;
35909;SDS011;22004;49.120;-0.200;2023-09-12T06:13:25;14.43;;;9.32;;
35909;SDS011;22004;49.120;-0.200;2023-09-12T06:15:51;16.40;;;10.13;;
35909;SDS011;22004;49.120;-0.200;2023-09-12T06:18:16;12.35;;;9.45;;
35909;SDS011;22004;49.120;-0.200;2023-09-12T06:20:43;21.48;;;12.77;;
35909;SDS011;22004;49.120;-0.200;2023-09-12T06:23:08;23.20;;;13.15;;
35909;SDS011;22004;49.120;-0.200;2023-09-12T06:25:35;18.35;;;11.48;;
35909;SDS011;22004;49.120;-0.200;2023-09-12T06:28:00;27.77;;;13.93;;
35909;SDS011;22004;49.120;-0.200;2023-09-12T06:30:25;18.77;;;12.02;;
35909;SDS011;22004;49.120;-0.200;2023-09-12T06:32:51;19.45;;;12.25;;
35909;SDS011;22004;49.120;-0.200;2023-09-12T06:35:16;17.10;;;10.70;;
35909;SDS011;22004;49.120;-0.200;2023-09-12T06:37:41;18.75;;;11.30;;
35909;SDS011;22004;49.120;-0.200;2023-09-12T06:40:07;30.50;;;15.90;;
35909;SDS011;22004;49.120;-0.200;2023-09-12T06:42:32;17.77;;;10.98;;
35909;SDS011;22004;49.120;-0.200;2023-09-12T06:44:58;20.17;;;11.75;;
35909;SDS011;22004;49.120;-0.200;2023-09-12T06:47:23;16.10;;;11.25;;
35909;SDS011;22004;49.120;-0.200;2023-09-12T06:49:48;19.98;;;11.52;;
35909;SDS011;22004;49.120;-0.200;2023-09-12T06:52:14;15.65;;;11.25;;
35909;SDS011;22004;49.120;-0.200;2023-09-12T06:54:39;20.05;;;11.35;;
35909;SDS011;22004;49.120;-0.200;2023-09-12T06:57:05;18.40;;;10.82;;
35909;SDS011;22004;49.120;-0.200;2023-09-12T06:59:31;17.48;;;12.02;;
35909;SDS011;22004;49.120;-0.200;2023-09-12T07:01:56;16.50;;;10.65;;
35909;SDS011;22004;49.120;-0.200;2023-09-12T07:04:22;14.85;;;10.80;;
35909;SDS011;22004;49.120;-0.200;2023-09-12T07:06:47;14.00;;;10.63;;
35909;SDS011;22004;49.120;-0.200;2023-09-12T07:09:12;20.17;;;11.63;;
35909;SDS011;22004;49.120;-0.200;2023-09-12T07:11:40;20.30;;;10.57;;
35909;SDS011;22004;49.120;-0.200;2023-09-12T07:14:06;15.70;;;11.35;;
35909;SDS011;22004;49.120;-0.200;2023-09-12T07:16:31;16.52;;;12.00;;
35909;SDS011;22004;49.120;-0.200;2023-09-12T07:18:57;17.20;;;11.60;;
35909;SDS011;22004;49.120;-0.200;2023-09-12T07:21:22;16.98;;;10.80;;
35909;SDS011;22004;49.120;-0.200;2023-09-12T07:23:48;18.30;;;11.27;;
35909;SDS011;22004;49.120;-0.200;2023-09-12T07:26:13;15.60;;;10.50;;
35909;SDS011;22004;49.120;-0.200;2023-09-12T07:28:39;17.38;;;11.35;;
35909;SDS011;22004;49.120;-0.200;2023-09-12T07:31:05;18.42;;;11.07;;
35909;SDS011;22004;49.120;-0.200;2023-09-12T07:33:31;20.55;;;11.95;;
35909;SDS011;22004;49.120;-0.200;2023-09-12T07:35:56;18.63;;;11.98;;
35909;SDS011;22004;49.120;-0.200;2023-09-12T07:38:21;23.33;;;13.40;;
35909;SDS011;22004;49.120;-0.200;2023-09-12T07:40:47;23.95;;;14.55;;
35909;SDS011;22004;49.120;-0.200;2023-09-12T07:43:12;21.17;;;11.75;;
35909;SDS011;22004;49.120;-0.200;2023-09-12T07:45:38;16.98;;;11.80;;
35909;SDS011;22004;49.120;-0.200;2023-09-12T07:48:07;17.33;;;10.80;;
35909;SDS011;22004;49.120;-0.200;2023-09-12T07:50:33;19.30;;;12.02;;
35909;SDS011;22004;49.120;-0.200;2023-09-12T07:52:59;18.13;;;12.65;;
35909;SDS011;22004;49.120;-0.200;2023-09-12T07:55:24;19.25;;;11.82;;
35909;SDS011;22004;49.120;-0.200;2023-09-12T07:57:50;21.67;;;12.65;;
35909;SDS011;22004;49.120;-0.200;2023-09-12T08:00:15;20.33;;;11.57;;
35909;SDS011;22004;49.120;-0.200;2023-09-12T08:02:42;45.22;;;20.38;;
35909;SDS011;22004;49.120;-0.200;2023-09-12T08:05:07;38.42;;;19.50;;
35909;SDS011;22004;49.120;-0.200;2023-09-12T08:07:33;17.83;;;11.27;;
35909;SDS011;22004;49.120;-0.200;2023-09-12T08:09:59;26.00;;;14.93;;
35909;SDS011;22004;49.120;-0.200;2023-09-12T08:12:25;20.42;;;12.32;;
35909;SDS011;22004;49.120;-0.200;2023-09-12T08:14:52;17.50;;;11.70;;
35909;SDS011;22004;49.120;-0.200;2023-09-12T08:17:18;16.42;;;12.13;;
35909;SDS011;22004;49.120;-0.200;2023-09-12T08:19:44;22.73;;;15.02;;
35909;SDS011;22004;49.120;-0.200;2023-09-12T08:22:10;23.73;;;16.42;;
35909;SDS011;22004;49.120;-0.200;2023-09-12T08:24:36;16.63;;;11.80;;
35909;SDS011;22004;49.120;-0.200;2023-09-12T08:27:02;19.35;;;12.15;;
35909;SDS011;22004;49.120;-0.200;2023-09-12T08:29:28;17.65;;;10.93;;
35909;SDS011;22004;49.120;-0.200;2023-09-12T08:31:54;15.13;;;11.00;;
35909;SDS011;22004;49.120;-0.200;2023-09-12T08:34:20;30.15;;;15.57;;
35909;SDS011;22004;49.120;-0.200;2023-09-12T08:36:46;16.30;;;11.63;;
35909;SDS011;22004;49.120;-0.200;2023-09-12T08:39:14;16.05;;;11.13;;
35909;SDS011;22004;49.120;-0.200;2023-09-12T08:41:41;42.42;;;12.13;;
35909;SDS011;22004;49.120;-0.200;2023-09-12T08:44:12;28.85;;;12.65;;
35909;SDS011;22004;49.120;-0.200;2023-09-12T08:46:40;23.20;;;10.65;;
35909;SDS011;22004;49.120;-0.200;2023-09-12T08:49:07;18.15;;;10.38;;
35909;SDS011;22004;49.120;-0.200;2023-09-12T08:51:34;20.92;;;11.20;;
35909;SDS011;22004;49.120;-0.200;2023-09-12T08:54:00;18.20;;;11.05;;
35909;SDS011;22004;49.120;-0.200;2023-09-12T08:56:25;17.02;;;10.45;;
35909;SDS011;22004;49.120;-0.200;2023-09-12T08:58:51;17.15;;;10.68;;
35909;SDS011;22004;49.120;-0.200;2023-09-12T09:01:19;20.77;;;10.20;;
35909;SDS011;22004;49.120;-0.200;2023-09-12T09:03:45;15.00;;;8.93;;
35909;SDS011;22004;49.120;-0.200;2023-09-12T09:06:12;16.83;;;9.77;;
35909;SDS011;22004;49.120;-0.200;2023-09-12T09:08:40;14.90;;;9.07;;
35909;SDS011;22004;49.120;-0.200;2023-09-12T09:11:08;15.23;;;8.65;;
35909;SDS011;22004;49.120;-0.200;2023-09-12T09:13:35;15.80;;;9.10;;
35909;SDS011;22004;49.120;-0.200;2023-09-12T09:16:13;12.30;;;8.20;;
35909;SDS011;22004;49.120;-0.200;2023-09-12T09:18:56;13.98;;;8.52;;
35909;SDS011;22004;49.120;-0.200;2023-09-12T09:21:24;15.70;;;8.45;;
35909;SDS011;22004;49.120;-0.200;2023-09-12T09:23:51;14.63;;;7.20;;
35909;SDS011;22004;49.120;-0.200;2023-09-12T09:26:20;10.35;;;5.13;;
35909;SDS011;22004;49.120;-0.200;2023-09-12T09:28:45;21.40;;;5.07;;
35909;SDS011;22004;49.120;-0.200;2023-09-12T09:31:25;13.98;;;5.35;;
35909;SDS011;22004;49.120;-0.200;2023-09-12T09:33:50;11.38;;;5.97;;
35909;SDS011;22004;49.120;-0.200;2023-09-12T09:36:17;18.95;;;5.20;;
35909;SDS011;22004;49.120;-0.200;2023-09-12T09:38:42;11.68;;;4.75;;
35909;SDS011;22004;49.120;-0.200;2023-09-12T09:41:08;9.77;;;4.88;;
35909;SDS011;22004;49.120;-0.200;2023-09-12T09:43:34;11.70;;;4.85;;
35909;SDS011;22004;49.120;-0.200;2023-09-12T09:45:59;12.85;;;5.28;;
35909;SDS011;22004;49.120;-0.200;2023-09-12T09:48:25;21.10;;;5.20;;
35909;SDS011;22004;49.120;-0.200;2023-09-12T09:50:52;14.35;;;6.10;;
35909;SDS011;22004;49.120;-0.200;2023-09-12T09:53:21;16.30;;;7.10;;
35909;SDS011;22004;49.120;-0.200;2023-09-12T09:55:51;12.77;;;4.35;;
35909;SDS011;22004;49.120;-0.200;2023-09-12T09:58:16;11.50;;;4.18;;
35909;SDS011;22004;49.120;-0.200;2023-09-12T10:00:42;10.93;;;5.60;;
35909;SDS011;22004;49.120;-0.200;2023-09-12T10:03:08;11.57;;;4.00;;
35909;SDS011;22004;49.120;-0.200;2023-09-12T10:05:35;10.85;;;6.13;;
35909;SDS011;22004;49.120;-0.200;2023-09-12T10:08:02;11.90;;;4.43;;
35909;SDS011;22004;49.120;-0.200;2023-09-12T10:10:31;11.63;;;4.53;;
35909;SDS011;22004;49.120;-0.200;2023-09-12T10:13:00;11.55;;;4.82;;
35909;SDS011;22004;49.120;-0.200;2023-09-12T10:15:29;13.00;;;6.35;;
35909;SDS011;22004;49.120;-0.200;2023-09-12T10:17:56;14.35;;;6.10;;
35909;SDS011;22004;49.120;-0.200;2023-09-12T10:20:31;10.93;;;4.35;;
35909;SDS011;22004;49.120;-0.200;2023-09-12T10:23:08;11.70;;;4.45;;
35909;SDS011;22004;49.120;-0.200;2023-09-12T10:25:39;15.73;;;4.22;;
35909;SDS011;22004;49.120;-0.200;2023-09-12T10:28:08;13.27;;;4.88;;
35909;SDS011;22004;49.120;-0.200;2023-09-12T10:30:34;13.20;;;4.13;;
35909;SDS011;22004;49.120;-0.200;2023-09-12T10:33:04;10.75;;;4.22;;
35909;SDS011;22004;49.120;-0.200;2023-09-12T10:35:30;7.47;;;3.60;;
35909;SDS011;22004;49.120;-0.200;2023-09-12T10:37:59;12.35;;;5.22;;
35909;SDS011;22004;49.120;-0.200;2023-09-12T10:40:28;9.55;;;4.55;;
35909;SDS011;22004;49.120;-0.200;2023-09-12T10:42:55;8.68;;;4.05;;
35909;SDS011;22004;49.120;-0.200;2023-09-12T10:45:22;11.38;;;6.13;;
35909;SDS011;22004;49.120;-0.200;2023-09-12T10:47:47;8.23;;;3.72;;
35909;SDS011;22004;49.120;-0.200;2023-09-12T10:50:13;10.00;;;4.38;;
35909;SDS011;22004;49.120;-0.200;2023-09-12T10:52:39;13.73;;;5.72;;
35909;SDS011;22004;49.120;-0.200;2023-09-12T10:55:06;14.55;;;4.70;;
35909;SDS011;22004;49.120;-0.200;2023-09-12T10:57:32;13.60;;;5.40;;
35909;SDS011;22004;49.120;-0.200;2023-09-12T11:02:28;13.18;;;4.47;;
35909;SDS011;22004;49.120;-0.200;2023-09-12T11:04:54;11.18;;;4.57;;
35909;SDS011;22004;49.120;-0.200;2023-09-12T11:12:48;7.93;;;4.13;;
35909;SDS011;22004;49.120;-0.200;2023-09-12T11:15:15;13.07;;;6.07;;
35909;SDS011;22004;49.120;-0.200;2023-09-12T11:17:41;11.88;;;4.32;;
35909;SDS011;22004;49.120;-0.200;2023-09-12T11:20:07;9.00;;;3.85;;
35909;SDS011;22004;49.120;-0.200;2023-09-12T11:22:35;10.13;;;3.88;;
35909;SDS011;22004;49.120;-0.200;2023-09-12T11:25:04;8.80;;;4.50;;
35909;SDS011;22004;49.120;-0.200;2023-09-12T11:28:05;12.43;;;3.78;;
35909;SDS011;22004;49.120;-0.200;2023-09-12T11:30:30;6.18;;;3.78;;
35909;SDS011;22004;49.120;-0.200;2023-09-12T11:32:56;7.28;;;3.63;;
35909;SDS011;22004;49.120;-0.200;2023-09-12T11:35:23;10.07;;;5.28;;
35909;SDS011;22004;49.120;-0.200;2023-09-12T11:37:49;8.57;;;5.25;;
35909;SDS011;22004;49.120;-0.200;2023-09-12T11:40:17;8.32;;;5.75;;
35909;SDS011;22004;49.120;-0.200;2023-09-12T11:42:47;13.48;;;4.13;;
35909;SDS011;22004;49.120;-0.200;2023-09-12T11:45:14;10.00;;;4.82;;
35909;SDS011;22004;49.120;-0.200;2023-09-12T11:47:43;7.43;;;4.50;;
35909;SDS011;22004;49.120;-0.200;2023-09-12T11:50:26;11.13;;;3.70;;
35909;SDS011;22004;49.120;-0.200;2023-09-12T11:52:58;7.80;;;3.67;;
35909;SDS011;22004;49.120;-0.200;2023-09-12T11:55:24;8.88;;;4.47;;
35909;SDS011;22004;49.120;-0.200;2023-09-12T11:57:50;7.70;;;4.80;;
35909;SDS011;22004;49.120;-0.200;2023-09-12T12:00:15;6.50;;;4.63;;
35909;SDS011;22004;49.120;-0.200;2023-09-12T12:02:44;7.20;;;3.30;;
35909;SDS011;22004;49.120;-0.200;2023-09-12T12:05:10;8.50;;;4.68;;
35909;SDS011;22004;49.120;-0.200;2023-09-12T12:07:36;11.13;;;3.40;;
35909;SDS011;22004;49.120;-0.200;2023-09-12T12:10:01;7.68;;;4.30;;
35909;SDS011;22004;49.120;-0.200;2023-09-12T12:12:28;8.00;;;3.80;;
35909;SDS011;22004;49.120;-0.200;2023-09-12T12:14:54;11.02;;;3.80;;
35909;SDS011;22004;49.120;-0.200;2023-09-12T12:17:19;6.70;;;3.13;;
35909;SDS011;22004;49.120;-0.200;2023-09-12T12:19:45;6.38;;;3.60;;
35909;SDS011;22004;49.120;-0.200;2023-09-12T12:22:11;8.30;;;4.28;;
35909;SDS011;22004;49.120;-0.200;2023-09-12T12:24:37;8.48;;;3.40;;
35909;SDS011;22004;49.120;-0.200;2023-09-12T12:27:04;6.57;;;2.53;;
35909;SDS011;22004;49.120;-0.200;2023-09-12T12:29:30;9.55;;;3.30;;
35909;SDS011;22004;49.120;-0.200;2023-09-12T12:31:59;7.25;;;4.30;;
35909;SDS011;22004;49.120;-0.200;2023-09-12T12:34:26;7.20;;;3.42;;
35909;SDS011;22004;49.120;-0.200;2023-09-12T12:36:52;7.90;;;3.97;;
35909;SDS011;22004;49.120;-0.200;2023-09-12T12:39:21;7.30;;;3.25;;
35909;SDS011;22004;49.120;-0.200;2023-09-12T12:41:47;9.07;;;3.78;;
35909;SDS011;22004;49.120;-0.200;2023-09-12T12:44:13;7.55;;;2.80;;
35909;SDS011;22004;49.120;-0.200;2023-09-12T12:49:18;7.90;;;3.20;;
35909;SDS011;22004;49.120;-0.200;2023-09-12T12:51:45;7.60;;;3.10;;
35909;SDS011;22004;49.120;-0.200;2023-09-12T12:54:12;9.88;;;3.50;;
35909;SDS011;22004;49.120;-0.200;2023-09-12T12:56:39;4.85;;;3.22;;
35909;SDS011;22004;49.120;-0.200;2023-09-12T12:59:06;5.75;;;3.50;;
35909;SDS011;22004;49.120;-0.200;2023-09-12T13:01:33;8.80;;;3.38;;
35909;SDS011;22004;49.120;-0.200;2023-09-12T13:04:00;6.75;;;3.20;;
35909;SDS011;22004;49.120;-0.200;2023-09-12T13:06:25;5.25;;;2.97;;
35909;SDS011;22004;49.120;-0.200;2023-09-12T13:08:52;6.68;;;3.00;;
35909;SDS011;22004;49.120;-0.200;2023-09-12T13:11:18;7.63;;;3.83;;
35909;SDS011;22004;49.120;-0.200;2023-09-12T13:13:44;5.47;;;3.05;;
35909;SDS011;22004;49.120;-0.200;2023-09-12T13:16:11;7.35;;;2.80;;
35909;SDS011;22004;49.120;-0.200;2023-09-12T13:18:38;4.93;;;2.03;;
35909;SDS011;22004;49.120;-0.200;2023-09-12T13:21:04;8.25;;;3.13;;
35909;SDS011;22004;49.120;-0.200;2023-09-12T13:23:30;5.60;;;2.47;;
35909;SDS011;22004;49.120;-0.200;2023-09-12T13:25:56;7.63;;;3.20;;
35909;SDS011;22004;49.120;-0.200;2023-09-12T13:28:22;13.07;;;3.28;;
35909;SDS011;22004;49.120;-0.200;2023-09-12T13:30:51;8.95;;;2.55;;
35909;SDS011;22004;49.120;-0.200;2023-09-12T13:33:17;7.45;;;2.85;;
35909;SDS011;22004;49.120;-0.200;2023-09-12T13:35:42;7.68;;;3.40;;
35909;SDS011;22004;49.120;-0.200;2023-09-12T13:38:08;6.80;;;2.90;;
35909;SDS011;22004;49.120;-0.200;2023-09-12T13:40:39;7.05;;;2.58;;
35909;SDS011;22004;49.120;-0.200;2023-09-12T13:43:05;8.20;;;3.60;;
35909;SDS011;22004;49.120;-0.200;2023-09-12T13:45:32;6.95;;;3.03;;
35909;SDS011;22004;49.120;-0.200;2023-09-12T13:47:58;14.80;;;3.22;;
35909;SDS011;22004;49.120;-0.200;2023-09-12T13:50:24;5.88;;;3.35;;
35909;SDS011;22004;49.120;-0.200;2023-09-12T13:52:50;9.25;;;3.20;;
35909;SDS011;22004;49.120;-0.200;2023-09-12T13:55:16;5.55;;;3.15;;
35909;SDS011;22004;49.120;-0.200;2023-09-12T13:57:41;7.30;;;2.63;;
35909;SDS011;22004;49.120;-0.200;2023-09-12T14:00:07;5.00;;;2.65;;
35909;SDS011;22004;49.120;-0.200;2023-09-12T14:02:33;6.80;;;2.95;;
35909;SDS011;22004;49.120;-0.200;2023-09-12T14:04:59;4.78;;;2.88;;
35909;SDS011;22004;49.120;-0.200;2023-09-12T14:07:25;5.28;;;2.83;;
35909;SDS011;22004;49.120;-0.200;2023-09-12T14:09:51;5.63;;;3.10;;
35909;SDS011;22004;49.120;-0.200;2023-09-12T14:12:19;8.32;;;3.17;;
35909;SDS011;22004;49.120;-0.200;2023-09-12T14:14:45;9.85;;;3.10;;
35909;SDS011;22004;49.120;-0.200;2023-09-12T14:17:11;6.97;;;2.88;;
35909;SDS011;22004;49.120;-0.200;2023-09-12T14:19:36;7.53;;;2.50;;
35909;SDS011;22004;49.120;-0.200;2023-09-12T14:22:02;8.27;;;3.13;;
35909;SDS011;22004;49.120;-0.200;2023-09-12T14:24:28;9.13;;;3.25;;
35909;SDS011;22004;49.120;-0.200;2023-09-12T14:26:53;8.02;;;3.30;;